createdAt,value
2017-09-11T00:01:50.570Z,3.35
2017-09-11T00:04:18.278Z,3.30
2017-09-11T00:06:46.920Z,3.45
2017-09-11T00:09:14.631Z,3.10
2017-09-11T00:11:42.345Z,2.90
2017-09-11T00:14:10.213Z,3.45
2017-09-11T00:16:38.080Z,3.95
2017-09-11T00:19:05.783Z,4.12
2017-09-11T00:21:34.430Z,4.00
2017-09-11T00:24:02.298Z,3.55
2017-09-11T00:26:30.164Z,2.90
2017-09-11T00:28:58.031Z,4.15
2017-09-11T00:31:25.898Z,3.42
2017-09-11T00:33:53.621Z,3.87
2017-09-11T00:36:21.341Z,3.85
2017-09-11T00:38:49.192Z,4.18
2017-09-11T00:41:17.049Z,4.87
2017-09-11T00:43:44.927Z,3.75
2017-09-11T00:46:12.794Z,3.65
2017-09-11T00:48:40.665Z,4.32
2017-09-11T00:51:08.529Z,4.12
2017-09-11T00:53:36.499Z,4.40
2017-09-11T00:56:04.366Z,3.60
2017-09-11T00:58:32.233Z,4.05
2017-09-11T01:01:00.101Z,3.65
2017-09-11T01:03:27.968Z,4.00
2017-09-11T01:05:55.835Z,4.43
2017-09-11T01:08:23.573Z,4.78
2017-09-11T01:10:51.468Z,3.65
2017-09-11T01:13:19.206Z,4.28
2017-09-11T01:15:46.918Z,4.00
2017-09-11T01:18:14.763Z,3.37
2017-09-11T01:20:42.553Z,3.50
2017-09-11T01:23:10.321Z,4.10
2017-09-11T01:25:38.097Z,3.75
2017-09-11T01:28:06.641Z,3.45
2017-09-11T01:30:34.409Z,3.85
2017-09-11T01:33:02.273Z,3.50
2017-09-11T01:35:30.140Z,3.22
2017-09-11T01:37:57.865Z,3.40
2017-09-11T01:40:25.591Z,2.70
2017-09-11T01:42:53.435Z,2.55
2017-09-11T01:45:21.146Z,2.65
2017-09-11T01:47:49.785Z,2.47
2017-09-11T01:50:17.651Z,2.60
2017-09-11T01:52:45.518Z,2.92
2017-09-11T01:55:13.386Z,2.42
2017-09-11T01:57:41.254Z,2.80
2017-09-11T02:00:09.120Z,2.62
2017-09-11T02:02:36.988Z,2.80
2017-09-11T02:05:04.856Z,2.60
2017-09-11T02:07:32.722Z,2.87
2017-09-11T02:10:00.590Z,2.87
2017-09-11T02:12:28.457Z,2.40
2017-09-11T02:14:56.325Z,2.53
2017-09-11T02:17:24.192Z,2.58
2017-09-11T02:19:52.059Z,2.55
2017-09-11T02:22:19.926Z,2.72
2017-09-11T02:24:47.793Z,2.75
2017-09-11T02:27:15.661Z,2.65
2017-09-11T02:29:43.528Z,2.47
2017-09-11T02:32:11.396Z,2.85
2017-09-11T02:34:39.263Z,2.70
2017-09-11T02:37:07.130Z,2.85
2017-09-11T02:39:34.871Z,2.65
2017-09-11T02:42:02.583Z,2.40
2017-09-11T02:44:30.289Z,2.03
2017-09-11T02:46:58.093Z,2.40
2017-09-11T02:49:25.960Z,2.47
2017-09-11T02:51:53.825Z,2.35
2017-09-11T02:54:21.690Z,2.20
2017-09-11T02:56:49.558Z,2.00
2017-09-11T02:59:17.424Z,2.65
2017-09-11T03:01:45.292Z,2.40
2017-09-11T03:04:13.158Z,2.60
2017-09-11T03:06:41.026Z,2.00
2017-09-11T03:09:08.892Z,2.10
2017-09-11T03:11:36.600Z,2.25
2017-09-11T03:14:05.073Z,2.00
2017-09-11T03:16:33.723Z,2.40
2017-09-11T03:19:01.591Z,2.53
2017-09-11T03:21:29.457Z,1.90
2017-09-11T03:23:57.165Z,2.60
2017-09-11T03:26:25.806Z,2.40
2017-09-11T03:28:53.510Z,2.45
2017-09-11T03:31:21.985Z,2.58
2017-09-11T03:33:49.819Z,2.10
2017-09-11T03:36:17.686Z,2.30
2017-09-11T03:38:45.554Z,2.15
2017-09-11T03:41:13.420Z,2.10
2017-09-11T03:43:41.289Z,2.12
2017-09-11T03:46:09.155Z,2.03
2017-09-11T03:48:37.024Z,1.92
2017-09-11T03:51:04.891Z,1.83
2017-09-11T03:53:32.758Z,2.28
2017-09-11T03:56:00.626Z,2.03
2017-09-11T03:58:28.493Z,2.15
2017-09-11T04:00:56.359Z,2.80
2017-09-11T04:03:24.151Z,2.30
2017-09-11T04:05:51.991Z,2.85
2017-09-11T04:08:19.860Z,2.30
2017-09-11T04:10:47.728Z,2.00
2017-09-11T04:13:15.592Z,2.35
2017-09-11T04:15:43.459Z,2.50
2017-09-11T04:18:11.328Z,2.10
2017-09-11T04:20:39.195Z,2.50
2017-09-11T04:23:07.062Z,2.53
2017-09-11T04:25:34.929Z,2.25
2017-09-11T04:28:02.797Z,2.40
2017-09-11T04:30:44.391Z,2.12
2017-09-11T04:33:12.253Z,2.55
2017-09-11T04:35:40.120Z,2.70
2017-09-11T04:38:07.989Z,2.95
2017-09-11T04:40:35.855Z,2.42
2017-09-11T04:43:03.723Z,2.22
2017-09-11T04:45:31.590Z,2.40
2017-09-11T04:47:59.458Z,2.33
2017-09-11T04:50:27.325Z,2.20
2017-09-11T04:52:55.192Z,2.37
2017-09-11T04:55:23.059Z,2.35
2017-09-11T04:57:50.926Z,2.08
2017-09-11T05:00:18.794Z,2.25
2017-09-11T05:02:46.660Z,2.05
2017-09-11T05:05:14.528Z,2.50
2017-09-11T05:07:42.395Z,2.00
2017-09-11T05:10:10.263Z,1.80
2017-09-11T05:12:38.131Z,1.80
2017-09-11T05:15:05.997Z,2.10
2017-09-11T05:17:33.864Z,1.70
2017-09-11T05:20:01.732Z,2.30
2017-09-11T05:22:29.600Z,2.10
2017-09-11T05:24:57.467Z,1.98
2017-09-11T05:27:25.333Z,2.62
2017-09-11T05:29:53.099Z,2.03
2017-09-11T05:32:20.966Z,2.05
2017-09-11T05:34:48.833Z,2.40
2017-09-11T05:37:16.701Z,2.62
2017-09-11T05:39:44.568Z,2.47
2017-09-11T05:42:12.435Z,2.10
2017-09-11T05:44:40.302Z,2.50
2017-09-11T05:47:08.179Z,2.15
2017-09-11T05:49:36.040Z,2.08
2017-09-11T05:52:03.906Z,2.08
2017-09-11T05:54:31.780Z,2.40
2017-09-11T05:56:59.643Z,2.40
2017-09-11T05:59:27.508Z,2.33
2017-09-11T06:01:55.378Z,2.33
2017-09-11T06:04:23.243Z,2.78
2017-09-11T06:06:51.109Z,2.95
2017-09-11T06:09:18.976Z,2.87
2017-09-11T06:11:46.842Z,2.25
2017-09-11T06:14:14.710Z,2.67
2017-09-11T06:16:42.577Z,2.62
2017-09-11T06:19:10.444Z,2.58
2017-09-11T06:21:38.313Z,2.95
2017-09-11T06:26:40.297Z,3.37
2017-09-11T06:29:08.160Z,3.00
2017-09-11T06:31:36.027Z,2.92
2017-09-11T06:34:03.895Z,3.25
2017-09-11T06:36:31.763Z,3.00
2017-09-11T06:38:59.636Z,3.03
2017-09-11T06:41:28.213Z,3.00
2017-09-11T06:43:56.081Z,3.25
2017-09-11T06:46:23.879Z,2.60
2017-09-11T06:48:52.430Z,2.70
2017-09-11T06:51:20.303Z,2.70
2017-09-11T06:53:48.165Z,2.50
2017-09-11T06:56:16.031Z,2.95
2017-09-11T06:58:43.899Z,2.40
2017-09-11T07:01:11.767Z,2.75
2017-09-11T07:03:39.634Z,3.17
2017-09-11T07:06:07.502Z,3.97
2017-09-11T07:08:35.370Z,2.50
2017-09-11T07:11:03.237Z,3.10
2017-09-11T07:13:41.036Z,2.95
2017-09-11T07:16:08.904Z,3.03
2017-09-11T07:18:36.772Z,2.97
2017-09-11T07:21:04.638Z,2.50
2017-09-11T07:23:32.439Z,3.35
2017-09-11T07:26:00.987Z,2.97
2017-09-11T07:28:28.855Z,2.50
2017-09-11T07:30:56.722Z,2.30
2017-09-11T07:33:24.426Z,2.10
2017-09-11T07:35:53.071Z,2.85
2017-09-11T07:38:20.938Z,2.53
2017-09-11T07:40:48.805Z,2.55
2017-09-11T07:43:16.673Z,2.95
2017-09-11T07:45:44.539Z,2.80
2017-09-11T07:48:12.406Z,2.37
2017-09-11T07:50:40.273Z,2.30
2017-09-11T07:53:08.141Z,2.03
2017-09-11T07:55:35.851Z,2.37
2017-09-11T07:58:04.490Z,2.20
2017-09-11T08:00:32.357Z,1.95
2017-09-11T08:03:00.225Z,2.12
2017-09-11T08:05:28.092Z,1.83
2017-09-11T08:07:55.959Z,1.87
2017-09-11T08:10:23.827Z,2.17
2017-09-11T08:12:51.694Z,2.22
2017-09-11T08:15:19.561Z,2.20
2017-09-11T08:17:47.429Z,1.90
2017-09-11T08:20:15.296Z,2.03
2017-09-11T08:22:43.163Z,1.92
2017-09-11T08:25:11.031Z,2.10
2017-09-11T08:27:38.897Z,2.03
2017-09-11T08:30:06.764Z,2.22
2017-09-11T08:32:34.632Z,2.30
2017-09-11T08:35:02.502Z,2.00
2017-09-11T08:37:30.367Z,1.75
2017-09-11T08:39:58.086Z,1.85
2017-09-11T08:42:25.897Z,1.70
2017-09-11T08:44:53.765Z,1.70
2017-09-11T08:47:21.466Z,1.70
2017-09-11T08:49:49.937Z,1.90
2017-09-11T08:52:18.409Z,1.85
2017-09-11T08:54:46.264Z,1.85
2017-09-11T08:57:14.127Z,1.52
2017-09-11T08:59:41.828Z,1.95
2017-09-11T09:02:10.376Z,1.80
2017-09-11T09:04:38.244Z,1.90
2017-09-11T09:07:06.110Z,2.03
2017-09-11T09:09:33.814Z,1.98
2017-09-11T09:12:02.288Z,2.15
2017-09-11T09:14:30.765Z,1.80
2017-09-11T09:16:59.317Z,2.10
2017-09-11T09:19:27.184Z,2.08
2017-09-11T09:21:55.051Z,1.50
2017-09-11T09:24:22.841Z,2.90
2017-09-11T09:26:51.399Z,1.80
2017-09-11T09:29:19.267Z,1.70
2017-09-11T09:31:47.134Z,2.00
2017-09-11T09:34:15.002Z,1.75
2017-09-11T09:36:42.869Z,1.73
2017-09-11T09:39:10.586Z,2.08
2017-09-11T09:41:38.295Z,2.17
2017-09-11T09:44:06.019Z,1.85
2017-09-11T09:46:33.738Z,1.73
2017-09-11T09:49:01.454Z,2.08
2017-09-11T09:51:29.167Z,1.58
2017-09-11T09:53:57.019Z,1.30
2017-09-11T09:56:24.885Z,1.90
2017-09-11T09:58:52.752Z,1.85
2017-09-11T10:01:20.459Z,1.37
2017-09-11T10:03:48.940Z,1.30
2017-09-11T10:06:17.410Z,1.70
2017-09-11T10:08:45.898Z,1.55
2017-09-11T10:11:14.376Z,1.70
2017-09-11T10:13:43.033Z,1.50
2017-09-11T10:16:10.759Z,2.10
2017-09-11T10:18:38.470Z,1.60
2017-09-11T10:21:06.179Z,1.62
2017-09-11T10:23:33.879Z,1.70
2017-09-11T10:26:01.591Z,1.48
2017-09-11T10:28:30.090Z,1.87
2017-09-11T10:30:57.902Z,1.50
2017-09-11T10:33:25.762Z,1.65
2017-09-11T10:35:53.629Z,1.92
2017-09-11T10:38:21.500Z,1.40
2017-09-11T10:40:49.199Z,1.40
2017-09-11T10:43:17.714Z,1.95
2017-09-11T10:45:45.463Z,1.70
2017-09-11T10:48:13.177Z,1.65
2017-09-11T10:50:40.880Z,1.92
2017-09-11T10:53:09.350Z,1.80
2017-09-11T10:55:37.818Z,1.60
2017-09-11T10:58:05.665Z,1.83
2017-09-11T11:00:33.363Z,2.03
2017-09-11T11:03:01.838Z,1.60
2017-09-11T11:05:30.318Z,1.70
2017-09-11T11:07:58.794Z,2.00
2017-09-11T11:10:26.523Z,2.00
2017-09-11T11:12:54.405Z,2.17
2017-09-11T11:15:22.271Z,2.10
2017-09-11T11:17:50.137Z,2.08
2017-09-11T11:20:18.009Z,1.80
2017-09-11T11:22:45.872Z,1.70
2017-09-11T11:25:13.741Z,1.62
2017-09-11T11:27:41.463Z,2.15
2017-09-11T11:30:09.271Z,1.75
2017-09-11T11:32:37.137Z,2.35
2017-09-11T11:35:04.850Z,1.80
2017-09-11T11:37:32.666Z,1.83
2017-09-11T11:40:00.386Z,2.22
2017-09-11T11:42:28.101Z,1.60
2017-09-11T11:44:55.818Z,3.85
2017-09-11T11:47:23.538Z,1.75
2017-09-11T11:49:51.244Z,2.30
2017-09-11T11:52:19.052Z,2.00
2017-09-11T11:54:46.762Z,2.08
2017-09-11T11:57:14.478Z,2.00
2017-09-11T11:59:42.187Z,2.10
2017-09-11T12:02:10.012Z,2.30
2017-09-11T12:04:37.877Z,2.22
2017-09-11T12:07:05.744Z,1.85
2017-09-11T12:09:33.615Z,2.35
2017-09-11T12:12:01.483Z,2.12
2017-09-11T12:14:29.178Z,2.55
2017-09-11T12:16:57.659Z,2.30
2017-09-11T12:19:26.207Z,1.92
2017-09-11T12:21:54.074Z,1.92
2017-09-11T12:24:21.940Z,1.87
2017-09-11T12:26:49.808Z,1.80
2017-09-11T12:29:17.681Z,1.75
2017-09-11T12:31:45.440Z,2.33
2017-09-11T12:34:13.307Z,2.25
2017-09-11T12:36:41.175Z,2.40
2017-09-11T12:39:08.888Z,2.45
2017-09-11T12:41:36.600Z,1.90
2017-09-11T12:44:04.309Z,2.45
2017-09-11T12:46:32.951Z,2.10
2017-09-11T12:49:00.817Z,2.25
2017-09-11T12:51:28.518Z,2.00
2017-09-11T12:53:56.995Z,2.08
2017-09-11T12:56:24.702Z,2.42
2017-09-11T12:58:52.440Z,1.85
2017-09-11T13:01:20.155Z,1.65
2017-09-11T13:03:47.866Z,1.52
2017-09-11T13:06:15.684Z,1.70
2017-09-11T13:08:43.551Z,1.95
2017-09-11T13:11:11.272Z,1.77
2017-09-11T13:13:39.032Z,2.00
2017-09-11T13:16:06.747Z,1.37
2017-09-11T13:18:34.462Z,2.05
2017-09-11T13:21:02.171Z,1.50
2017-09-11T13:23:29.879Z,1.80
2017-09-11T13:25:58.355Z,1.10
2017-09-11T13:28:26.840Z,1.20
2017-09-11T13:30:55.318Z,1.40
2017-09-11T13:33:23.795Z,1.30
2017-09-11T13:35:52.323Z,1.62
2017-09-11T13:38:20.043Z,1.83
2017-09-11T13:40:48.694Z,1.37
2017-09-11T13:43:16.490Z,1.25
2017-09-11T13:45:44.966Z,1.48
2017-09-11T13:48:13.471Z,1.58
2017-09-11T13:50:41.174Z,1.45
2017-09-11T13:53:08.885Z,1.98
2017-09-11T13:55:37.350Z,2.10
2017-09-11T13:58:05.059Z,1.70
2017-09-11T14:00:32.791Z,2.20
2017-09-11T14:03:01.263Z,1.70
2017-09-11T14:05:29.108Z,2.25
2017-09-11T14:07:56.976Z,2.20
2017-09-11T14:10:24.741Z,2.00
2017-09-11T14:12:52.606Z,2.15
2017-09-11T14:15:20.330Z,2.20
2017-09-11T14:17:48.049Z,1.98
2017-09-11T14:20:15.771Z,2.45
2017-09-11T14:22:43.495Z,1.98
2017-09-11T14:25:12.023Z,2.20
2017-09-11T14:27:39.729Z,1.83
2017-09-11T14:30:07.443Z,2.53
2017-09-11T14:32:35.154Z,2.78
2017-09-11T14:35:02.870Z,1.90
2017-09-11T14:37:30.577Z,1.92
2017-09-11T14:39:58.298Z,2.97
2017-09-11T14:42:26.015Z,1.90
2017-09-11T14:44:53.777Z,1.90
2017-09-11T14:47:21.486Z,1.77
2017-09-11T14:49:49.286Z,1.75
2017-09-11T14:52:17.002Z,1.70
2017-09-11T14:54:44.706Z,1.52
2017-09-11T14:57:12.581Z,2.53
2017-09-11T14:59:40.447Z,2.05
2017-09-11T15:02:08.316Z,2.22
2017-09-11T15:04:36.088Z,1.98
2017-09-11T15:07:03.794Z,2.12
2017-09-11T15:09:31.497Z,2.50
2017-09-11T15:11:59.377Z,2.50
2017-09-11T15:14:27.245Z,2.58
2017-09-11T15:16:55.110Z,2.08
2017-09-11T15:19:22.980Z,2.00
2017-09-11T15:21:50.849Z,1.67
2017-09-11T15:24:18.716Z,1.75
2017-09-11T15:26:46.423Z,1.52
2017-09-11T15:29:14.128Z,1.70
2017-09-11T15:31:42.006Z,1.73
2017-09-11T15:34:09.872Z,1.50
2017-09-11T15:36:38.383Z,1.92
2017-09-11T15:39:06.939Z,1.50
2017-09-11T15:41:34.806Z,1.50
2017-09-11T15:44:02.510Z,1.87
2017-09-11T15:46:31.052Z,2.30
2017-09-11T15:48:58.817Z,1.75
2017-09-11T15:51:26.685Z,2.00
2017-09-11T15:53:54.389Z,2.10
2017-09-11T15:56:22.863Z,1.60
2017-09-11T15:58:51.413Z,1.73
2017-09-11T16:01:19.138Z,1.85
2017-09-11T16:03:46.943Z,2.08
2017-09-11T16:06:14.641Z,1.90
2017-09-11T16:08:43.119Z,1.90
2017-09-11T16:11:11.596Z,2.00
2017-09-11T16:13:40.087Z,2.17
2017-09-11T16:16:08.605Z,1.80
2017-09-11T16:19:15.468Z,1.90
2017-09-11T16:21:43.174Z,2.12
2017-09-11T16:24:10.903Z,2.35
2017-09-11T16:26:38.742Z,1.80
2017-09-11T16:29:07.258Z,2.67
2017-09-11T16:31:34.961Z,1.80
2017-09-11T16:36:36.670Z,1.42
2017-09-11T16:39:05.213Z,1.50
2017-09-11T16:41:32.931Z,1.10
2017-09-11T16:44:00.679Z,1.25
2017-09-11T16:46:29.187Z,1.40
2017-09-11T16:48:56.891Z,1.33
2017-09-11T16:51:24.596Z,1.20
2017-09-11T16:53:53.070Z,1.80
2017-09-11T16:56:21.547Z,1.60
2017-09-11T16:58:50.072Z,1.62
2017-09-11T17:01:17.827Z,1.83
2017-09-11T17:03:45.530Z,1.50
2017-09-11T17:06:13.250Z,1.67
2017-09-11T17:08:40.958Z,1.42
2017-09-11T17:11:08.670Z,2.10
2017-09-11T17:13:36.374Z,1.55
2017-09-11T17:16:04.086Z,1.55
2017-09-11T17:18:32.584Z,1.90
2017-09-11T17:21:00.359Z,2.30
2017-09-11T17:23:28.110Z,2.35
2017-09-11T17:25:55.810Z,1.90
2017-09-11T17:28:23.525Z,1.90
2017-09-11T17:30:51.996Z,1.50
2017-09-11T17:33:20.480Z,1.73
2017-09-11T17:35:48.959Z,2.20
2017-09-11T17:38:17.478Z,2.12
2017-09-11T17:40:45.239Z,2.00
2017-09-11T17:43:13.019Z,2.10
2017-09-11T17:45:40.767Z,1.83
2017-09-11T17:48:08.518Z,1.40
2017-09-11T17:50:37.034Z,1.90
2017-09-11T17:53:04.787Z,2.08
2017-09-11T17:55:32.499Z,1.70
2017-09-11T17:58:00.263Z,1.67
2017-09-11T18:00:27.973Z,1.77
2017-09-11T18:02:55.687Z,1.55
2017-09-11T18:05:23.403Z,2.12
2017-09-11T18:07:51.119Z,2.03
2017-09-11T18:10:18.830Z,2.30
2017-09-11T18:12:46.587Z,2.67
2017-09-11T18:15:14.394Z,2.37
2017-09-11T18:17:42.151Z,3.55
2017-09-11T18:20:09.874Z,2.78
2017-09-11T18:22:37.591Z,2.65
2017-09-11T18:25:05.311Z,2.10
2017-09-11T18:27:33.031Z,2.45
2017-09-11T18:30:00.741Z,2.60
2017-09-11T18:32:28.474Z,2.05
2017-09-11T18:34:57.014Z,2.90
2017-09-11T18:37:24.723Z,2.15
2017-09-11T18:39:53.271Z,2.55
2017-09-11T18:42:20.984Z,2.00
2017-09-11T18:44:49.506Z,2.00
2017-09-11T18:47:17.219Z,2.30
2017-09-11T18:49:45.703Z,2.47
2017-09-11T18:52:14.183Z,2.53
2017-09-11T18:54:42.679Z,3.00
2017-09-11T18:57:10.419Z,2.30
2017-09-11T18:59:38.140Z,3.83
2017-09-11T19:02:05.850Z,3.28
2017-09-11T19:04:34.330Z,2.60
2017-09-11T19:07:02.808Z,2.28
2017-09-11T19:09:30.520Z,1.75
2017-09-11T19:11:58.226Z,2.60
2017-09-11T19:14:25.930Z,3.62
2017-09-11T19:16:53.638Z,2.83
2017-09-11T19:19:21.346Z,2.50
2017-09-11T19:21:49.819Z,2.42
2017-09-11T19:24:18.302Z,1.83
2017-09-11T19:26:46.818Z,2.65
2017-09-11T19:29:14.537Z,2.75
2017-09-11T19:31:42.246Z,2.20
2017-09-11T19:34:09.945Z,2.15
2017-09-11T19:36:37.686Z,2.30
2017-09-11T19:39:05.399Z,2.22
2017-09-11T19:41:33.870Z,1.80
2017-09-11T19:44:01.582Z,2.20
2017-09-11T19:46:29.294Z,2.00
2017-09-11T19:48:57.023Z,2.75
2017-09-11T19:51:24.762Z,2.20
2017-09-11T19:53:52.502Z,2.45
2017-09-11T19:56:20.982Z,2.10
2017-09-11T19:58:50.454Z,2.37
2017-09-11T20:01:19.090Z,2.00
2017-09-11T20:03:46.796Z,2.97
2017-09-11T20:06:16.385Z,2.15
2017-09-11T20:08:45.023Z,2.60
2017-09-11T20:11:13.512Z,2.22
2017-09-11T20:13:42.072Z,2.12
2017-09-11T20:16:09.806Z,2.70
2017-09-11T20:18:37.574Z,2.08
2017-09-11T20:21:05.301Z,2.30
2017-09-11T20:23:33.027Z,2.10
2017-09-11T20:26:00.739Z,2.08
2017-09-11T20:28:28.451Z,1.83
2017-09-11T20:30:56.156Z,2.70
2017-09-11T20:33:24.632Z,2.10
2017-09-11T20:35:52.347Z,1.90
2017-09-11T20:38:20.055Z,2.15
2017-09-11T20:40:48.569Z,2.05
2017-09-11T20:43:16.330Z,1.67
2017-09-11T20:45:44.231Z,2.28
2017-09-11T20:48:11.978Z,2.22
2017-09-11T20:50:39.687Z,2.75
2017-09-11T20:53:07.399Z,2.30
2017-09-11T20:55:35.101Z,2.40
2017-09-11T20:58:02.810Z,2.15
2017-09-11T21:00:30.537Z,1.80
2017-09-11T21:02:58.244Z,2.47
2017-09-11T21:05:25.966Z,3.08
2017-09-11T21:07:53.730Z,2.33
2017-09-11T21:10:21.495Z,2.15
2017-09-11T21:12:49.198Z,1.85
2017-09-11T21:15:16.903Z,2.90
2017-09-11T21:17:44.613Z,2.47
2017-09-11T21:20:12.383Z,1.60
2017-09-11T21:22:40.102Z,2.45
2017-09-11T21:25:07.816Z,2.50
2017-09-11T21:27:35.531Z,1.92
2017-09-11T21:30:03.259Z,1.70
2017-09-11T21:32:31.000Z,1.98
2017-09-11T21:34:58.719Z,1.90
2017-09-11T21:37:26.421Z,2.37
2017-09-11T21:39:55.061Z,1.90
2017-09-11T21:42:22.931Z,2.20
2017-09-11T21:44:50.798Z,2.40
2017-09-11T21:47:18.663Z,2.03
2017-09-11T21:49:46.369Z,2.00
2017-09-11T21:52:14.855Z,2.22
2017-09-11T21:54:43.338Z,2.67
2017-09-11T21:57:11.049Z,2.08
2017-09-11T21:59:39.523Z,2.60
2017-09-11T22:02:07.229Z,1.75
2017-09-11T22:04:35.707Z,2.60
2017-09-11T22:07:04.179Z,2.00
2017-09-11T22:09:31.886Z,2.50
2017-09-11T22:11:59.688Z,1.92
2017-09-11T22:14:27.402Z,2.95
2017-09-11T22:16:55.114Z,2.42
2017-09-11T22:19:22.825Z,1.95
2017-09-11T22:21:51.298Z,1.55
2017-09-11T22:24:19.775Z,2.28
2017-09-11T22:26:48.259Z,2.17
2017-09-11T22:29:16.735Z,2.00
2017-09-11T22:31:44.444Z,2.55
2017-09-11T22:34:12.153Z,3.12
2017-09-11T22:36:39.857Z,2.33
2017-09-11T22:39:07.566Z,2.33
2017-09-11T22:41:35.319Z,1.52
2017-09-11T22:44:03.031Z,2.30
2017-09-11T22:46:31.559Z,2.05
2017-09-11T22:48:59.307Z,1.90
2017-09-11T22:51:27.006Z,2.05
2017-09-11T22:53:54.706Z,1.70
2017-09-11T22:56:23.183Z,2.37
2017-09-11T22:58:51.650Z,2.25
2017-09-11T23:01:19.362Z,2.62
2017-09-11T23:03:47.078Z,2.80
2017-09-11T23:06:14.785Z,1.90
2017-09-11T23:08:42.491Z,1.83
2017-09-11T23:11:10.198Z,2.50
2017-09-11T23:13:37.908Z,2.17
2017-09-11T23:16:05.612Z,2.58
2017-09-11T23:18:34.106Z,1.92
2017-09-11T23:21:01.807Z,1.77
2017-09-11T23:23:29.515Z,3.17
2017-09-11T23:25:57.990Z,2.53
2017-09-11T23:28:25.695Z,2.00
2017-09-11T23:30:53.398Z,2.58
2017-09-11T23:33:21.098Z,2.20
2017-09-11T23:35:49.567Z,2.33
2017-09-11T23:38:18.037Z,2.00
2017-09-11T23:40:45.754Z,2.67
2017-09-11T23:43:13.458Z,2.47
2017-09-11T23:45:41.162Z,2.30
2017-09-11T23:48:08.862Z,2.75
2017-09-11T23:50:36.633Z,2.08
2017-09-11T23:53:04.500Z,1.90
2017-09-11T23:55:32.367Z,2.10
2017-09-11T23:58:00.234Z,1.92
